Albany, Texas
Current Conditions -  °F | °C
As of 6:55 PM on Monday 26 Jan 2015 (Local Time) from KBKD Reporting Station
Clear Clear  
Wind Chill: 65°   Ceiling: Unl
Heat Index: 65°   Visibility: 7mi
Dew Point: 34°   Wind: 8mph
Humidity: 31%   Direction: 250°WSW
Pressure: 30.11"   Gusts: NA
Location:  32.72°N, 99.3°W
Report Text: KBKD 270055Z AUTO 25007KT 7SM CLR 18/01 A3011 RMK AO2 T01840010
Loading
Personal Weather Stations






























Interactive Weather Map New forecast layout! Learn more

10-Day Weather Forecast

Advertisements
Track Severe Weather on mobile